createdAt,value
2022-08-22T00:03:15.953Z,17.30
2022-08-22T00:03:58.454Z,17.30
2022-08-22T00:06:36.005Z,17.40
2022-08-22T00:09:18.549Z,17.40
2022-08-22T00:12:00.146Z,17.50
2022-08-22T00:14:41.087Z,17.50
2022-08-22T00:17:30.113Z,17.30
2022-08-22T00:20:02.937Z,17.10
2022-08-22T00:22:49.058Z,17.10
2022-08-22T00:25:47.960Z,17.00
2022-08-22T00:28:23.675Z,17.00
2022-08-22T00:31:14.718Z,17.00
2022-08-22T00:33:48.429Z,17.00
2022-08-22T00:36:38.873Z,17.00
2022-08-22T00:39:36.694Z,17.10
2022-08-22T00:42:31.290Z,17.00
2022-08-22T00:45:29.656Z,17.00
2022-08-22T00:48:17.705Z,17.00
2022-08-22T00:50:52.342Z,17.00
2022-08-22T00:53:39.722Z,16.90
2022-08-22T00:56:42.294Z,16.90
2022-08-22T00:59:46.676Z,16.90
2022-08-22T01:02:52.727Z,16.80
2022-08-22T01:05:25.928Z,16.70
2022-08-22T01:07:55.900Z,16.80
2022-08-22T01:10:28.860Z,16.80
2022-08-22T01:13:10.751Z,16.70
2022-08-22T01:15:39.847Z,16.50
2022-08-22T01:18:21.964Z,16.50
2022-08-22T01:21:24.398Z,16.40
2022-08-22T01:24:22.097Z,16.50
2022-08-22T01:27:21.468Z,16.60
2022-08-22T01:30:09.622Z,16.80
2022-08-22T01:32:57.139Z,16.90
2022-08-22T01:35:48.382Z,17.00
2022-08-22T01:38:43.790Z,17.00
2022-08-22T01:41:17.178Z,17.00
2022-08-22T01:44:16.105Z,17.00
2022-08-22T01:46:54.190Z,17.00
2022-08-22T01:49:46.576Z,16.90
2022-08-22T01:52:36.941Z,16.90
2022-08-22T01:55:12.240Z,16.90
2022-08-22T01:57:55.643Z,16.90
2022-08-22T02:00:35.305Z,16.90
2022-08-22T02:03:03.422Z,17.00
2022-08-22T02:05:37.285Z,17.00
2022-08-22T02:08:20.044Z,17.00
2022-08-22T02:11:03.930Z,17.00
2022-08-22T02:13:36.623Z,17.00
2022-08-22T02:16:30.751Z,17.10
2022-08-22T02:19:18.371Z,17.10
2022-08-22T02:22:00.327Z,17.10
2022-08-22T02:24:33.020Z,17.10
2022-08-22T02:27:24.761Z,17.20
2022-08-22T02:30:14.403Z,17.20
2022-08-22T02:32:41.177Z,17.20
2022-08-22T02:35:18.540Z,17.20
2022-08-22T02:38:08.003Z,17.10
2022-08-22T02:40:53.150Z,17.10
2022-08-22T02:43:39.471Z,17.10
2022-08-22T02:46:17.467Z,17.10
2022-08-22T02:48:54.909Z,17.20
2022-08-22T02:51:36.726Z,17.10
2022-08-22T02:54:09.012Z,17.10
2022-08-22T02:56:44.422Z,17.10
2022-08-22T02:59:32.577Z,17.00
2022-08-22T03:02:27.709Z,16.90
2022-08-22T03:05:01.542Z,16.70
2022-08-22T03:07:41.049Z,16.70
2022-08-22T03:10:23.299Z,16.60
2022-08-22T03:13:10.916Z,16.50
2022-08-22T03:15:58.680Z,16.50
2022-08-22T03:18:32.750Z,16.40
2022-08-22T03:21:11.656Z,16.30
2022-08-22T03:23:46.758Z,16.20
2022-08-22T03:26:17.645Z,16.20
2022-08-22T03:28:59.986Z,16.10
2022-08-22T03:31:28.986Z,16.20
2022-08-22T03:34:25.031Z,16.10
2022-08-22T03:37:18.606Z,16.00
2022-08-22T03:39:59.936Z,16.00
2022-08-22T03:43:04.267Z,16.00
2022-08-22T03:45:44.846Z,15.90
2022-08-22T03:48:45.780Z,15.90
2022-08-22T03:51:31.116Z,15.80
2022-08-22T03:54:09.715Z,15.60
2022-08-22T03:57:00.240Z,15.50
2022-08-22T04:00:00.389Z,15.50
2022-08-22T04:03:11.948Z,15.60
2022-08-22T04:06:00.761Z,15.60
2022-08-22T04:09:12.777Z,15.60
2022-08-22T04:12:10.287Z,15.50
2022-08-22T04:15:16.230Z,15.40
2022-08-22T04:18:00.064Z,15.50
2022-08-22T04:20:33.079Z,15.40
2022-08-22T04:23:18.829Z,15.40
2022-08-22T04:25:52.848Z,15.30
2022-08-22T04:28:24.988Z,15.30
2022-08-22T04:31:13.556Z,15.30
2022-08-22T04:34:08.590Z,15.30
2022-08-22T04:36:48.218Z,15.30
2022-08-22T04:39:19.810Z,15.30
2022-08-22T04:42:29.140Z,15.30
2022-08-22T04:44:56.857Z,15.30
2022-08-22T04:47:55.506Z,15.30
2022-08-22T04:50:31.219Z,15.20
2022-08-22T04:53:09.465Z,15.20
2022-08-22T04:55:51.187Z,15.20
2022-08-22T04:58:24.309Z,15.20
2022-08-22T05:01:13.386Z,15.20
2022-08-22T05:03:55.687Z,15.20
2022-08-22T05:06:27.070Z,15.30
2022-08-22T05:08:55.814Z,15.30
2022-08-22T05:11:24.068Z,15.30
2022-08-22T05:14:35.266Z,15.40
2022-08-22T05:17:05.008Z,15.40
2022-08-22T05:19:37.373Z,15.50
2022-08-22T05:22:16.726Z,15.60
2022-08-22T05:24:48.420Z,15.60
2022-08-22T05:27:22.911Z,15.70
2022-08-22T05:29:53.773Z,15.80
2022-08-22T05:32:30.545Z,15.90
2022-08-22T05:35:05.790Z,16.00
2022-08-22T05:37:45.898Z,16.10
2022-08-22T05:40:24.642Z,16.20
2022-08-22T05:42:52.793Z,16.40
2022-08-22T05:45:21.167Z,16.50
2022-08-22T05:48:05.905Z,16.60
2022-08-22T05:50:38.391Z,16.70
2022-08-22T05:53:17.848Z,16.90
2022-08-22T05:55:59.259Z,17.00
2022-08-22T05:58:43.817Z,17.20
2022-08-22T06:01:35.876Z,17.40
2022-08-22T06:04:16.956Z,17.60
2022-08-22T06:07:01.504Z,17.80
2022-08-22T06:09:59.816Z,17.90
2022-08-22T06:12:43.138Z,18.00
2022-08-22T06:15:26.549Z,18.20
2022-08-22T06:18:05.193Z,18.20
2022-08-22T06:20:44.054Z,18.40
2022-08-22T06:23:18.327Z,18.50
2022-08-22T06:25:47.409Z,18.60
2022-08-22T06:28:22.156Z,18.80
2022-08-22T06:30:54.067Z,19.00
2022-08-22T06:33:28.616Z,19.10
2022-08-22T06:36:22.746Z,19.30
2022-08-22T06:39:11.586Z,19.40
2022-08-22T06:42:02.373Z,19.50
2022-08-22T06:44:59.259Z,19.60
2022-08-22T06:47:33.542Z,19.70
2022-08-22T06:50:06.493Z,19.80
2022-08-22T06:52:52.170Z,20.00
2022-08-22T06:55:19.981Z,20.20
2022-08-22T06:58:12.547Z,20.20
2022-08-22T07:00:42.512Z,20.40
2022-08-22T07:03:23.571Z,20.60
2022-08-22T07:05:55.335Z,20.80
2022-08-22T07:08:24.706Z,21.00
2022-08-22T07:10:59.624Z,21.20
2022-08-22T07:13:28.324Z,21.20
2022-08-22T07:15:59.824Z,21.20
2022-08-22T07:18:27.645Z,21.20
2022-08-22T07:20:57.601Z,21.40
2022-08-22T07:23:36.483Z,21.60
2022-08-22T07:26:23.154Z,21.70
2022-08-22T07:29:11.551Z,21.80
2022-08-22T07:31:51.062Z,21.90
2022-08-22T07:34:37.996Z,21.90
2022-08-22T07:37:27.633Z,22.00
2022-08-22T07:40:24.566Z,22.10
2022-08-22T07:43:09.648Z,22.40
2022-08-22T07:46:19.256Z,22.70
2022-08-22T07:49:08.087Z,22.80
2022-08-22T07:51:47.345Z,23.00
2022-08-22T07:54:51.627Z,23.40
2022-08-22T07:57:31.628Z,23.50
2022-08-22T08:00:00.969Z,23.50
2022-08-22T08:02:28.804Z,23.70
2022-08-22T08:05:00.244Z,23.90
2022-08-22T08:07:29.157Z,24.10
2022-08-22T08:10:25.674Z,24.20
2022-08-22T08:13:02.264Z,24.30
2022-08-22T08:15:32.157Z,24.30
2022-08-22T08:18:08.826Z,24.50
2022-08-22T08:20:36.639Z,24.60
2022-08-22T08:23:06.724Z,24.60
2022-08-22T08:25:54.295Z,24.50
2022-08-22T08:28:35.128Z,24.60
2022-08-22T08:31:18.421Z,24.70
2022-08-22T08:33:48.806Z,24.70
2022-08-22T08:36:24.244Z,24.80
2022-08-22T08:39:02.631Z,24.90
2022-08-22T08:41:42.923Z,25.00
2022-08-22T08:44:24.698Z,25.00
2022-08-22T08:47:16.188Z,25.00
2022-08-22T08:50:05.230Z,25.20
2022-08-22T08:52:52.964Z,25.30
2022-08-22T08:55:42.717Z,25.30
2022-08-22T08:58:31.958Z,25.50
2022-08-22T09:01:41.451Z,25.30
2022-08-22T09:04:35.834Z,25.40
2022-08-22T09:07:26.512Z,25.60
2022-08-22T09:10:29.535Z,25.70
2022-08-22T09:13:14.388Z,25.80
2022-08-22T09:19:27.199Z,25.90
2022-08-22T09:22:18.567Z,26.00
2022-08-22T09:25:06.746Z,26.10
2022-08-22T09:27:47.190Z,26.10
2022-08-22T09:30:18.800Z,26.00
2022-08-22T09:33:02.604Z,26.20
2022-08-22T09:36:01.002Z,26.40
2022-08-22T09:38:39.665Z,26.50
2022-08-22T09:40:15.552Z,25.90
2022-08-22T09:41:41.308Z,26.50
2022-08-22T09:44:43.829Z,26.50
2022-08-22T09:47:24.538Z,26.60
2022-08-22T09:50:06.683Z,26.80
2022-08-22T09:52:53.902Z,26.80
2022-08-22T09:55:45.708Z,26.60
2022-08-22T09:58:18.178Z,26.70
2022-08-22T10:00:56.979Z,26.80
2022-08-22T10:03:51.362Z,27.00
2022-08-22T10:06:28.280Z,27.10
2022-08-22T10:09:08.988Z,27.00
2022-08-22T10:11:45.373Z,27.00
2022-08-22T10:14:33.848Z,27.20
2022-08-22T10:17:21.839Z,27.10
2022-08-22T10:20:03.798Z,27.10
2022-08-22T10:22:47.340Z,27.40
2022-08-22T10:25:33.596Z,27.50
2022-08-22T10:28:31.941Z,27.50
2022-08-22T10:31:17.469Z,27.40
2022-08-22T10:33:58.772Z,27.30
2022-08-22T10:36:44.575Z,27.40
2022-08-22T10:39:18.258Z,27.60
2022-08-22T10:42:16.864Z,27.50
2022-08-22T10:45:12.818Z,27.70
2022-08-22T10:48:10.005Z,27.60
2022-08-22T10:51:04.395Z,27.60
2022-08-22T10:53:56.639Z,27.70
2022-08-22T10:56:30.642Z,27.70
2022-08-22T10:59:22.905Z,27.60
2022-08-22T11:02:01.675Z,27.70
2022-08-22T11:04:57.234Z,27.80
2022-08-22T11:07:48.601Z,27.90
2022-08-22T11:10:39.708Z,27.70
2022-08-22T11:13:14.112Z,27.80
2022-08-22T11:16:22.037Z,27.70
2022-08-22T11:19:15.114Z,27.90
2022-08-22T11:22:23.608Z,27.80
2022-08-22T11:25:04.359Z,27.90
2022-08-22T11:27:59.543Z,28.10
2022-08-22T11:30:56.901Z,28.20
2022-08-22T11:33:47.259Z,28.10
2022-08-22T11:36:26.351Z,27.90
2022-08-22T11:39:18.312Z,27.80
2022-08-22T11:41:52.727Z,27.80
2022-08-22T11:44:27.669Z,27.80
2022-08-22T11:46:57.276Z,27.90
2022-08-22T11:49:28.050Z,28.00
2022-08-22T11:52:23.926Z,27.90
2022-08-22T11:55:07.121Z,28.10
2022-08-22T11:57:47.638Z,28.10
2022-08-22T12:00:21.000Z,28.30
2022-08-22T12:03:23.404Z,28.50
2022-08-22T12:06:31.455Z,28.80
2022-08-22T12:09:09.635Z,28.90
2022-08-22T12:12:04.560Z,28.60
2022-08-22T12:15:13.291Z,28.70
2022-08-22T12:18:15.307Z,28.60
2022-08-22T12:21:09.057Z,28.40
2022-08-22T12:24:20.797Z,28.30
2022-08-22T12:27:11.573Z,28.00
2022-08-22T12:29:59.926Z,28.00
2022-08-22T12:32:38.411Z,28.10
2022-08-22T12:36:09.543Z,28.10
2022-08-22T12:39:03.337Z,28.30
2022-08-22T12:42:18.942Z,28.50
2022-08-22T12:45:13.967Z,28.70
2022-08-22T12:48:13.378Z,28.80
2022-08-22T12:50:51.995Z,29.00
2022-08-22T12:53:46.442Z,29.00
2022-08-22T12:56:32.071Z,28.70
2022-08-22T12:59:22.292Z,28.70
2022-08-22T13:01:53.878Z,28.50
2022-08-22T13:04:33.103Z,28.50
2022-08-22T13:07:22.737Z,28.60
2022-08-22T13:09:59.256Z,28.80
2022-08-22T13:12:29.433Z,28.90
2022-08-22T13:15:20.876Z,29.00
2022-08-22T13:17:51.819Z,29.00
2022-08-22T13:20:29.883Z,29.10
2022-08-22T13:23:00.603Z,29.20
2022-08-22T13:25:30.266Z,29.20
2022-08-22T13:28:01.039Z,29.20
2022-08-22T13:30:34.561Z,29.10
2022-08-22T13:33:16.342Z,29.20
2022-08-22T13:35:55.538Z,29.20
2022-08-22T13:38:25.713Z,29.00
2022-08-22T13:40:56.812Z,29.00
2022-08-22T13:43:30.091Z,29.00
2022-08-22T13:46:01.938Z,29.10
2022-08-22T13:48:56.656Z,29.10
2022-08-22T13:51:49.845Z,29.10
2022-08-22T13:54:16.564Z,29.20
2022-08-22T13:56:47.886Z,29.40
2022-08-22T14:00:09.060Z,29.50
2022-08-22T14:02:43.314Z,29.60
2022-08-22T14:05:17.007Z,29.90
2022-08-22T14:08:18.528Z,30.00
2022-08-22T14:10:59.569Z,30.20
2022-08-22T14:13:57.089Z,30.30
2022-08-22T14:16:50.748Z,30.20
2022-08-22T14:19:58.587Z,30.20
2022-08-22T14:22:32.028Z,30.30
2022-08-22T14:25:23.333Z,30.30
2022-08-22T14:27:50.064Z,30.20
2022-08-22T14:30:26.314Z,30.00
2022-08-22T14:32:59.303Z,30.10
2022-08-22T14:35:41.143Z,30.10
2022-08-22T14:38:33.080Z,30.00
2022-08-22T14:41:07.853Z,29.90
2022-08-22T14:43:35.086Z,29.80
2022-08-22T14:46:12.356Z,30.00
2022-08-22T14:49:05.177Z,30.20
2022-08-22T14:51:32.561Z,30.30
2022-08-22T14:54:21.665Z,30.40
2022-08-22T14:56:52.036Z,30.20
2022-08-22T14:59:50.303Z,30.20
2022-08-22T15:02:32.868Z,30.10
2022-08-22T15:05:16.989Z,30.00
2022-08-22T15:07:54.292Z,29.90
2022-08-22T15:10:31.670Z,30.00
2022-08-22T15:13:02.992Z,30.10
2022-08-22T15:15:41.088Z,30.10
2022-08-22T15:18:19.703Z,29.80
2022-08-22T15:20:49.211Z,29.90
2022-08-22T15:23:22.960Z,30.10
2022-08-22T15:26:03.827Z,30.30
2022-08-22T15:28:52.755Z,30.40
2022-08-22T15:31:20.414Z,30.70
2022-08-22T15:33:48.523Z,31.40
2022-08-22T15:36:24.545Z,31.50
2022-08-22T15:38:54.484Z,31.30
2022-08-22T15:41:32.164Z,30.70
2022-08-22T15:44:06.236Z,30.00
2022-08-22T15:46:45.836Z,29.80
2022-08-22T15:49:19.676Z,29.60
2022-08-22T15:51:58.582Z,29.40
2022-08-22T15:54:30.008Z,29.50
2022-08-22T15:57:10.648Z,29.80
2022-08-22T15:59:54.109Z,30.50
2022-08-22T16:02:35.124Z,31.70
2022-08-22T16:05:11.308Z,33.00
2022-08-22T16:07:49.417Z,33.40
2022-08-22T16:10:22.273Z,33.70
2022-08-22T16:13:09.349Z,33.40
2022-08-22T16:15:51.334Z,32.60
2022-08-22T16:18:39.665Z,32.40
2022-08-22T16:21:22.704Z,32.30
2022-08-22T16:23:56.610Z,32.40
2022-08-22T16:26:30.247Z,32.40
2022-08-22T16:29:16.113Z,32.20
2022-08-22T16:31:44.915Z,32.20
2022-08-22T16:34:17.777Z,32.00
2022-08-22T16:36:47.395Z,31.50
2022-08-22T16:39:23.600Z,31.10
2022-08-22T16:42:12.050Z,30.80
2022-08-22T16:44:57.954Z,30.50
2022-08-22T16:47:41.705Z,30.10
2022-08-22T16:50:18.429Z,29.80
2022-08-22T16:52:56.334Z,29.50
2022-08-22T16:55:29.339Z,29.40
2022-08-22T16:58:21.141Z,29.30
2022-08-22T17:00:51.709Z,29.20
2022-08-22T17:03:30.119Z,29.10
2022-08-22T17:05:59.837Z,29.00
2022-08-22T17:09:04.543Z,28.90
2022-08-22T17:11:49.541Z,28.80
2022-08-22T17:14:23.335Z,28.70
2022-08-22T17:17:04.637Z,28.70
2022-08-22T17:19:40.876Z,28.60
2022-08-22T17:22:25.980Z,28.50
2022-08-22T17:25:10.411Z,28.40
2022-08-22T17:27:44.010Z,28.30
2022-08-22T17:30:20.170Z,28.20
2022-08-22T17:33:20.434Z,27.90
2022-08-22T17:36:26.748Z,27.90
2022-08-22T17:39:21.598Z,27.80
2022-08-22T17:42:16.530Z,27.70
2022-08-22T17:44:47.987Z,27.50
2022-08-22T17:47:19.314Z,27.40
2022-08-22T17:50:00.025Z,27.40
2022-08-22T17:52:35.372Z,27.20
2022-08-22T17:55:18.025Z,27.20
2022-08-22T17:57:55.621Z,27.10
2022-08-22T18:00:33.206Z,27.00
2022-08-22T18:03:08.854Z,26.90
2022-08-22T18:05:50.540Z,26.80
2022-08-22T18:11:38.838Z,26.60
2022-08-22T18:14:23.922Z,26.40
2022-08-22T18:16:53.912Z,26.30
2022-08-22T18:19:23.818Z,26.10
2022-08-22T18:21:58.342Z,26.00
2022-08-22T18:24:35.098Z,25.90
2022-08-22T18:27:09.316Z,25.70
2022-08-22T18:30:11.239Z,25.50
2022-08-22T18:32:58.489Z,25.30
2022-08-22T18:35:33.469Z,25.10
2022-08-22T18:38:21.076Z,25.00
2022-08-22T18:41:16.692Z,24.80
2022-08-22T18:43:48.136Z,24.80
2022-08-22T18:46:41.985Z,24.60
2022-08-22T18:49:32.193Z,24.60
2022-08-22T18:52:16.969Z,24.40
2022-08-22T18:55:01.758Z,24.20
2022-08-22T18:57:50.247Z,24.10
2022-08-22T19:00:49.378Z,24.10
2022-08-22T19:03:22.473Z,24.00
2022-08-22T19:06:08.060Z,24.00
2022-08-22T19:09:10.889Z,23.90
2022-08-22T19:11:58.965Z,23.90
2022-08-22T19:14:52.284Z,23.90
2022-08-22T19:17:37.764Z,23.90
2022-08-22T19:20:41.149Z,23.80
2022-08-22T19:23:32.403Z,23.70
2022-08-22T19:26:27.723Z,23.70
2022-08-22T19:29:10.090Z,23.60
2022-08-22T19:31:39.867Z,23.60
2022-08-22T19:34:18.269Z,23.60
2022-08-22T19:36:46.810Z,23.50
2022-08-22T19:39:41.318Z,23.60
2022-08-22T19:42:27.898Z,23.50
2022-08-22T19:45:05.780Z,23.50
2022-08-22T19:47:41.920Z,23.50
2022-08-22T19:50:26.327Z,23.60
2022-08-22T19:53:24.586Z,23.60
2022-08-22T19:56:04.304Z,23.50
2022-08-22T19:58:55.950Z,23.40
2022-08-22T20:01:22.739Z,23.50
2022-08-22T20:04:20.668Z,23.40
2022-08-22T20:07:31.269Z,23.40
2022-08-22T20:10:17.045Z,23.40
2022-08-22T20:12:55.876Z,23.30
2022-08-22T20:15:25.447Z,23.20
2022-08-22T20:20:59.261Z,23.20
2022-08-22T20:23:32.110Z,23.20
2022-08-22T20:25:59.663Z,23.20
2022-08-22T20:28:40.145Z,23.10
2022-08-22T20:31:19.483Z,23.00
2022-08-22T20:33:51.173Z,22.90
2022-08-22T20:36:27.979Z,22.80
2022-08-22T20:39:05.869Z,22.70
2022-08-22T20:41:40.399Z,22.70
2022-08-22T20:44:24.493Z,22.70
2022-08-22T20:47:19.405Z,22.60
2022-08-22T20:49:50.866Z,22.60
2022-08-22T20:52:36.134Z,22.40
2022-08-22T20:55:31.381Z,22.30
2022-08-22T20:58:20.592Z,22.30
2022-08-22T21:00:50.988Z,22.30
2022-08-22T21:03:40.907Z,22.20
2022-08-22T21:06:13.223Z,22.10
2022-08-22T21:08:40.388Z,22.10
2022-08-22T21:11:27.768Z,22.10
2022-08-22T21:13:55.507Z,22.00
2022-08-22T21:16:31.958Z,22.00
2022-08-22T21:19:03.582Z,22.00
2022-08-22T21:21:35.370Z,22.00
2022-08-22T21:24:05.872Z,22.00
2022-08-22T21:26:39.384Z,21.90
2022-08-22T21:29:12.177Z,21.80
2022-08-22T21:32:04.770Z,21.90
2022-08-22T21:34:46.786Z,21.90
2022-08-22T21:37:29.176Z,21.90
2022-08-22T21:40:07.844Z,21.90
2022-08-22T21:42:44.605Z,21.90
2022-08-22T21:45:26.625Z,21.90
2022-08-22T21:47:54.748Z,21.90
2022-08-22T21:50:23.308Z,21.90
2022-08-22T21:52:56.293Z,21.90
2022-08-22T21:55:37.308Z,21.80
2022-08-22T21:58:11.996Z,21.80
2022-08-22T22:00:52.312Z,21.80
2022-08-22T22:03:40.214Z,21.70
2022-08-22T22:06:07.066Z,21.70
2022-08-22T22:08:33.977Z,21.70
2022-08-22T22:11:04.673Z,21.70
2022-08-22T22:13:33.552Z,21.70
2022-08-22T22:16:00.540Z,21.70
2022-08-22T22:18:32.039Z,21.60
2022-08-22T22:21:00.119Z,21.60
2022-08-22T22:23:27.748Z,21.50
2022-08-22T22:25:57.396Z,21.50
2022-08-22T22:28:29.936Z,21.50
2022-08-22T22:30:56.780Z,21.40
2022-08-22T22:33:26.843Z,21.40
2022-08-22T22:35:55.724Z,21.40
2022-08-22T22:38:24.256Z,21.30
2022-08-22T22:40:52.283Z,21.30
2022-08-22T22:43:19.284Z,21.20
2022-08-22T22:45:46.211Z,21.20
2022-08-22T22:48:17.535Z,21.20
2022-08-22T22:50:52.088Z,21.20
2022-08-22T22:53:21.226Z,21.10
2022-08-22T22:55:59.820Z,21.00
2022-08-22T22:58:27.964Z,21.00
2022-08-22T23:00:55.112Z,21.00
2022-08-22T23:03:22.177Z,21.00
2022-08-22T23:05:48.941Z,21.00
2022-08-22T23:08:15.706Z,21.00
2022-08-22T23:10:42.485Z,20.90
2022-08-22T23:13:09.337Z,20.90
2022-08-22T23:15:37.310Z,20.80
2022-08-22T23:18:04.469Z,20.70
2022-08-22T23:20:31.289Z,20.70
2022-08-22T23:22:59.527Z,20.60
2022-08-22T23:25:26.619Z,20.70
2022-08-22T23:27:53.698Z,20.60
2022-08-22T23:30:21.810Z,20.50
2022-08-22T23:32:48.664Z,20.50
2022-08-22T23:35:15.428Z,20.50
2022-08-22T23:37:42.411Z,20.50
2022-08-22T23:40:10.453Z,20.50
2022-08-22T23:42:37.441Z,20.40
2022-08-22T23:45:04.651Z,20.40
2022-08-22T23:47:31.395Z,20.40
2022-08-22T23:49:58.431Z,20.40
2022-08-22T23:52:29.698Z,20.40
2022-08-22T23:54:56.532Z,20.30
2022-08-22T23:57:27.393Z,20.30
2022-08-22T23:59:57.657Z,20.30
